createdAt,value
2023-02-13T00:03:31.232Z,1.60
2023-02-13T00:08:36.063Z,1.80
2023-02-13T00:13:39.204Z,2.87
2023-02-13T00:18:42.395Z,2.73
2023-02-13T00:23:47.008Z,2.80
2023-02-13T00:28:50.268Z,3.57
2023-02-13T00:33:54.785Z,2.60
2023-02-13T00:38:59.541Z,1.27
2023-02-13T00:44:02.717Z,1.27
2023-02-13T00:49:07.987Z,1.10
2023-02-13T00:54:12.828Z,1.27
2023-02-13T00:59:17.673Z,3.57
2023-02-13T01:04:21.569Z,2.30
2023-02-13T01:09:26.619Z,0.90
2023-02-13T01:14:29.905Z,1.03
2023-02-13T01:19:33.263Z,1.47
2023-02-13T01:24:37.800Z,2.57
2023-02-13T01:29:41.181Z,2.30
2023-02-13T01:34:44.322Z,0.93
2023-02-13T01:39:49.832Z,1.57
2023-02-13T01:44:54.689Z,1.00
2023-02-13T01:50:07.357Z,1.50
2023-02-13T01:55:14.368Z,2.20
2023-02-13T02:00:19.043Z,10.87
2023-02-13T02:05:24.217Z,1.80
2023-02-13T02:10:30.048Z,8.13
2023-02-13T02:15:33.461Z,5.60
2023-02-13T02:21:03.556Z,7.87
2023-02-13T02:26:39.841Z,6.70
2023-02-13T02:32:12.169Z,7.73
2023-02-13T02:37:27.497Z,23.67
2023-02-13T02:42:40.570Z,1.40
2023-02-13T02:48:11.505Z,2.63
2023-02-13T02:53:30.482Z,8.23
2023-02-13T02:58:56.634Z,0.77
2023-02-13T03:04:23.824Z,0.87
2023-02-13T03:09:49.142Z,5.23
2023-02-13T03:14:52.492Z,1.83
2023-02-13T03:20:22.399Z,1.00
2023-02-13T03:25:35.250Z,1.33
2023-02-13T03:30:48.960Z,5.47
2023-02-13T03:36:20.058Z,7.00
2023-02-13T03:41:28.762Z,11.67
2023-02-13T03:46:37.375Z,1.47
2023-02-13T03:51:48.972Z,0.77
2023-02-13T03:57:11.456Z,0.83
2023-02-13T04:02:19.007Z,1.23
2023-02-13T04:07:32.151Z,0.83
2023-02-13T04:12:43.165Z,9.37
2023-02-13T04:17:49.706Z,1.50
2023-02-13T04:22:54.327Z,1.27
2023-02-13T04:27:57.482Z,1.00
2023-02-13T04:33:00.668Z,1.23
2023-02-13T04:38:05.478Z,1.87
2023-02-13T04:43:08.702Z,10.07
2023-02-13T04:48:11.793Z,13.20
2023-02-13T04:53:16.781Z,15.53
2023-02-13T04:58:20.082Z,1.03
2023-02-13T05:03:23.529Z,1.43
2023-02-13T05:08:28.302Z,6.93
2023-02-13T05:13:31.623Z,1.47
2023-02-13T05:18:34.876Z,12.57
2023-02-13T05:23:39.392Z,0.70
2023-02-13T05:29:00.357Z,3.40
2023-02-13T05:34:03.842Z,9.30
2023-02-13T05:39:09.092Z,11.33
2023-02-13T05:44:13.050Z,2.20
2023-02-13T05:49:17.249Z,7.33
2023-02-13T05:54:22.411Z,23.60
2023-02-13T05:59:25.698Z,28.07
2023-02-13T06:04:28.845Z,42.00
2023-02-13T06:09:33.268Z,125.53
2023-02-13T06:14:36.659Z,14.13
2023-02-13T06:19:39.790Z,29.50
2023-02-13T06:24:44.638Z,89.97
2023-02-13T06:29:48.662Z,108.23
2023-02-13T06:34:52.141Z,84.70
2023-02-13T06:39:57.042Z,20.07
2023-02-13T06:45:00.693Z,27.43
2023-02-13T06:50:03.868Z,35.10
2023-02-13T06:55:09.241Z,43.67
2023-02-13T07:00:14.930Z,32.67
2023-02-13T07:05:18.817Z,77.50
2023-02-13T07:10:23.388Z,35.40
2023-02-13T07:15:26.695Z,49.27
2023-02-13T07:20:30.410Z,29.53
2023-02-13T07:25:35.640Z,82.23
2023-02-13T07:30:39.418Z,48.60
2023-02-13T07:35:48.438Z,41.23
2023-02-13T07:40:53.370Z,32.70
2023-02-13T07:45:59.788Z,19.03
2023-02-13T07:51:04.988Z,6.77
2023-02-13T07:56:11.227Z,0.50
2023-02-13T08:01:16.834Z,0.60
2023-02-13T08:06:20.832Z,2.43
2023-02-13T08:11:51.879Z,0.90
2023-02-13T08:16:56.644Z,3.23
2023-02-13T08:22:00.065Z,0.40
2023-02-13T08:27:04.718Z,0.60
2023-02-13T08:32:08.262Z,6.63
2023-02-13T08:37:11.575Z,0.90
2023-02-13T08:42:16.736Z,0.50
2023-02-13T08:47:20.262Z,0.50
2023-02-13T08:52:23.569Z,11.10
2023-02-13T08:57:28.898Z,1.03
2023-02-13T09:02:32.189Z,4.00
2023-02-13T09:07:35.512Z,9.70
2023-02-13T09:12:40.299Z,38.40
2023-02-13T09:17:43.549Z,8.60
2023-02-13T09:22:46.677Z,24.50
2023-02-13T09:27:51.341Z,2.50
2023-02-13T09:32:56.016Z,5.50
2023-02-13T09:38:02.217Z,15.37
2023-02-13T09:43:14.858Z,22.13
2023-02-13T09:48:29.796Z,5.67
2023-02-13T09:53:36.236Z,5.10
2023-02-13T09:58:45.665Z,3.20
2023-02-13T10:03:59.480Z,6.17
2023-02-13T10:09:14.570Z,45.13
2023-02-13T10:14:24.565Z,1.73
2023-02-13T10:19:36.061Z,3.23
2023-02-13T10:24:45.458Z,2.70
2023-02-13T10:30:12.566Z,2.40
2023-02-13T10:35:23.536Z,3.83
2023-02-13T10:40:33.110Z,1.47
2023-02-13T10:45:50.771Z,2.17
2023-02-13T10:51:02.164Z,1.97
2023-02-13T10:56:24.829Z,1.97
2023-02-13T11:01:36.290Z,2.00
2023-02-13T11:06:46.631Z,2.10
2023-02-13T11:11:51.313Z,2.07
2023-02-13T11:17:00.198Z,2.50
2023-02-13T11:22:07.103Z,2.43
2023-02-13T11:27:14.042Z,3.13
2023-02-13T11:32:25.069Z,2.23
2023-02-13T11:37:29.647Z,2.73
2023-02-13T11:42:36.807Z,2.97
2023-02-13T11:47:43.979Z,2.90
2023-02-13T11:52:58.328Z,2.80
2023-02-13T11:58:03.338Z,2.60
2023-02-13T12:03:27.896Z,2.93
2023-02-13T12:08:32.785Z,2.77
2023-02-13T12:13:39.090Z,2.73
2023-02-13T12:18:47.606Z,3.63
2023-02-13T12:23:58.912Z,3.80
2023-02-13T12:29:34.312Z,3.40
2023-02-13T12:35:04.624Z,3.87
2023-02-13T12:40:32.536Z,2.60
2023-02-13T12:45:42.467Z,3.10
2023-02-13T12:50:58.035Z,3.33
2023-02-13T12:56:23.758Z,3.23
2023-02-13T13:01:45.616Z,3.13
2023-02-13T13:07:04.604Z,3.17
2023-02-13T13:12:20.138Z,3.07
2023-02-13T13:17:33.971Z,2.73
2023-02-13T13:22:45.741Z,4.20
2023-02-13T13:27:54.121Z,3.57
2023-02-13T13:33:04.223Z,3.93
2023-02-13T13:38:17.521Z,3.83
2023-02-13T13:43:30.571Z,5.40
2023-02-13T13:48:59.421Z,3.97
2023-02-13T13:54:26.489Z,4.27
2023-02-13T14:00:18.828Z,4.77
2023-02-13T14:05:28.840Z,3.30
2023-02-13T14:11:08.908Z,2.00
2023-02-13T14:16:13.696Z,1.50
2023-02-13T14:21:25.548Z,1.30
2023-02-13T14:26:36.077Z,1.53
2023-02-13T14:31:43.760Z,1.97
2023-02-13T14:36:48.798Z,2.20
2023-02-13T14:42:00.139Z,1.50
2023-02-13T14:47:12.550Z,1.00
2023-02-13T14:52:21.721Z,1.10
2023-02-13T14:57:30.052Z,1.50
2023-02-13T15:02:38.641Z,1.43
2023-02-13T15:07:48.603Z,1.30
2023-02-13T15:12:58.833Z,1.80
2023-02-13T15:18:08.945Z,1.37
2023-02-13T15:23:22.324Z,1.90
2023-02-13T15:28:27.080Z,2.73
2023-02-13T15:33:38.122Z,1.50
2023-02-13T15:38:41.653Z,1.93
2023-02-13T15:43:47.305Z,1.50
2023-02-13T15:48:53.418Z,1.53
2023-02-13T15:53:58.970Z,1.83
2023-02-13T15:59:04.112Z,2.40
2023-02-13T16:04:14.033Z,1.63
2023-02-13T16:09:28.627Z,3.40
2023-02-13T16:14:33.529Z,3.77
2023-02-13T16:19:44.364Z,1.60
2023-02-13T16:24:51.732Z,1.40
2023-02-13T16:29:58.151Z,3.20
2023-02-13T16:35:18.166Z,2.00
2023-02-13T16:40:41.636Z,1.93
2023-02-13T16:45:45.268Z,2.37
2023-02-13T16:50:56.768Z,4.10
2023-02-13T16:56:02.748Z,5.23
2023-02-13T17:01:06.611Z,3.10
2023-02-13T17:06:13.600Z,2.60
2023-02-13T17:11:20.606Z,3.90
2023-02-13T17:16:23.730Z,6.70
2023-02-13T17:21:28.512Z,12.17
2023-02-13T17:26:31.611Z,4.90
2023-02-13T17:31:34.876Z,4.53
2023-02-13T17:36:39.594Z,7.17
2023-02-13T17:41:43.663Z,5.30
2023-02-13T17:46:46.887Z,6.60
2023-02-13T17:51:51.765Z,2.93
2023-02-13T17:56:55.183Z,5.17
2023-02-13T18:01:58.481Z,2.73
2023-02-13T18:07:03.888Z,2.73
2023-02-13T18:12:08.221Z,3.70
2023-02-13T18:17:11.950Z,5.40
2023-02-13T18:22:16.717Z,3.33
2023-02-13T18:27:20.173Z,4.03
2023-02-13T18:32:24.260Z,3.27
2023-02-13T18:37:30.170Z,5.73
2023-02-13T18:42:34.474Z,4.93
2023-02-13T18:47:38.005Z,4.43
2023-02-13T18:52:42.806Z,3.17
2023-02-13T18:57:48.137Z,3.57
2023-02-13T19:02:51.687Z,6.40
2023-02-13T19:07:56.779Z,3.13
2023-02-13T19:13:00.096Z,3.30
2023-02-13T19:18:04.616Z,3.27
2023-02-13T19:23:09.321Z,3.80
2023-02-13T19:28:12.870Z,4.20
2023-02-13T19:33:16.826Z,6.27
2023-02-13T19:38:21.418Z,9.47
2023-02-13T19:43:25.017Z,8.60
2023-02-13T19:48:28.221Z,5.40
2023-02-13T19:53:32.955Z,6.77
2023-02-13T19:58:38.223Z,5.60
2023-02-13T20:03:42.008Z,8.73
2023-02-13T20:08:46.689Z,8.30
2023-02-13T20:13:55.567Z,8.43
2023-02-13T20:19:01.882Z,11.00
2023-02-13T20:24:07.432Z,8.57
2023-02-13T20:29:10.996Z,9.33
2023-02-13T20:34:14.316Z,11.37
2023-02-13T20:39:19.148Z,8.27
2023-02-13T20:44:22.657Z,8.10
2023-02-13T20:49:26.712Z,8.83
2023-02-13T20:54:31.663Z,9.73
2023-02-13T20:59:35.015Z,12.00
2023-02-13T21:04:38.626Z,10.03
2023-02-13T21:09:43.689Z,11.63
2023-02-13T21:14:46.862Z,10.43
2023-02-13T21:19:50.222Z,9.77
2023-02-13T21:24:54.867Z,14.20
2023-02-13T21:29:58.148Z,10.27
2023-02-13T21:35:01.497Z,21.13
2023-02-13T21:40:07.676Z,11.70
2023-02-13T21:45:11.968Z,8.87
2023-02-13T21:50:15.203Z,10.00
2023-02-13T21:55:19.828Z,10.33
2023-02-13T22:00:23.210Z,9.53
2023-02-13T22:05:26.801Z,9.10
2023-02-13T22:10:31.432Z,9.50
2023-02-13T22:15:34.727Z,6.37
2023-02-13T22:20:37.989Z,8.63
2023-02-13T22:25:48.478Z,8.10
2023-02-13T22:30:51.821Z,8.00
2023-02-13T22:35:54.929Z,6.50
2023-02-13T22:41:05.848Z,5.00
2023-02-13T22:46:13.024Z,6.40
2023-02-13T22:51:18.858Z,7.80
2023-02-13T22:56:24.372Z,4.73
2023-02-13T23:01:29.362Z,8.67
2023-02-13T23:06:32.675Z,11.07
2023-02-13T23:11:54.719Z,5.47
2023-02-13T23:17:15.139Z,4.37
2023-02-13T23:22:18.246Z,5.70
2023-02-13T23:27:22.917Z,7.10
2023-02-13T23:32:26.976Z,11.13
2023-02-13T23:37:30.506Z,3.83
2023-02-13T23:42:35.135Z,4.60
2023-02-13T23:47:38.968Z,3.57
2023-02-13T23:52:42.111Z,7.93
2023-02-13T23:57:51.966Z,4.70
